createdAt,value
2022-12-06T00:03:51.646Z,84.23
2022-12-06T00:08:56.208Z,84.14
2022-12-06T00:14:02.490Z,84.07
2022-12-06T00:19:05.891Z,83.99
2022-12-06T00:24:18.392Z,84.06
2022-12-06T00:29:24.202Z,84.26
2022-12-06T00:34:28.489Z,84.18
2022-12-06T00:39:31.800Z,84.37
2022-12-06T00:44:35.107Z,84.55
2022-12-06T00:49:38.325Z,84.44
2022-12-06T00:54:41.568Z,84.66
2022-12-06T00:59:44.778Z,84.75
2022-12-06T01:04:48.335Z,84.82
2022-12-06T01:09:51.568Z,84.87
2022-12-06T01:14:54.759Z,84.96
2022-12-06T01:19:58.567Z,84.98
2022-12-06T01:25:02.269Z,85.00
2022-12-06T01:30:07.292Z,85.09
2022-12-06T01:35:10.576Z,85.16
2022-12-06T01:40:14.399Z,85.18
2022-12-06T01:45:17.718Z,85.19
2022-12-06T01:50:27.582Z,85.13
2022-12-06T01:55:35.521Z,84.89
2022-12-06T02:00:39.091Z,84.72
2022-12-06T02:05:42.767Z,84.54
2022-12-06T02:10:46.004Z,84.60
2022-12-06T02:16:08.199Z,84.25
2022-12-06T02:21:37.479Z,84.17
2022-12-06T02:26:47.929Z,84.72
2022-12-06T02:32:04.859Z,84.97
2022-12-06T02:37:14.010Z,85.31
2022-12-06T02:42:23.782Z,85.67
2022-12-06T02:47:33.853Z,85.88
2022-12-06T02:52:42.131Z,85.98
2022-12-06T02:57:46.949Z,86.18
2022-12-06T03:02:50.284Z,86.35
2022-12-06T03:07:54.204Z,86.31
2022-12-06T03:13:26.628Z,86.23
2022-12-06T03:18:35.252Z,86.16
2022-12-06T03:23:44.492Z,86.18
2022-12-06T03:28:50.707Z,86.08
2022-12-06T03:33:59.257Z,86.09
2022-12-06T03:39:06.206Z,86.05
2022-12-06T03:44:09.574Z,86.04
2022-12-06T03:49:19.594Z,86.05
2022-12-06T03:54:22.851Z,85.88
2022-12-06T03:59:26.174Z,85.79
2022-12-06T04:04:29.393Z,85.75
2022-12-06T04:09:51.360Z,85.44
2022-12-06T04:14:55.427Z,85.43
2022-12-06T04:19:58.615Z,85.51
2022-12-06T04:25:01.827Z,85.63
2022-12-06T04:30:24.621Z,85.53
2022-12-06T04:35:46.883Z,85.45
2022-12-06T04:40:50.123Z,85.44
2022-12-06T04:45:53.737Z,85.40
2022-12-06T04:50:56.885Z,85.25
2022-12-06T04:56:00.131Z,85.09
2022-12-06T05:01:04.044Z,85.06
2022-12-06T05:06:07.727Z,84.93
2022-12-06T05:11:12.111Z,84.83
2022-12-06T05:16:15.407Z,84.91
2022-12-06T05:21:22.922Z,85.15
2022-12-06T05:26:29.331Z,85.38
2022-12-06T05:31:32.835Z,85.50
2022-12-06T05:36:36.224Z,85.68
2022-12-06T05:41:39.493Z,85.95
2022-12-06T05:46:42.616Z,86.16
2022-12-06T05:51:46.366Z,86.15
2022-12-06T05:56:50.811Z,86.16
2022-12-06T06:01:54.386Z,86.09
2022-12-06T06:06:57.738Z,86.06
2022-12-06T06:12:00.928Z,86.05
2022-12-06T06:17:04.292Z,86.11
2022-12-06T06:22:07.674Z,86.20
2022-12-06T06:27:10.964Z,86.10
2022-12-06T06:32:14.283Z,86.03
2022-12-06T06:37:17.595Z,85.80
2022-12-06T06:42:21.051Z,85.67
2022-12-06T06:47:24.429Z,85.54
2022-12-06T06:52:28.335Z,85.27
2022-12-06T06:57:36.712Z,85.35
2022-12-06T07:02:39.961Z,85.38
2022-12-06T07:07:45.007Z,85.24
2022-12-06T07:12:50.211Z,85.08
2022-12-06T07:17:54.520Z,84.87
2022-12-06T07:22:58.061Z,84.79
2022-12-06T07:28:01.860Z,84.70
2022-12-06T07:33:05.184Z,84.70
2022-12-06T07:38:08.486Z,84.55
2022-12-06T07:43:30.683Z,84.47
2022-12-06T07:48:34.131Z,84.21
2022-12-06T07:53:37.554Z,84.19
2022-12-06T07:58:42.011Z,84.21
2022-12-06T08:03:46.297Z,84.04
2022-12-06T08:08:50.085Z,83.66
2022-12-06T08:13:53.556Z,83.55
2022-12-06T08:18:57.698Z,83.65
2022-12-06T08:24:01.249Z,83.48
2022-12-06T08:29:04.542Z,83.54
2022-12-06T08:34:08.524Z,83.60
2022-12-06T08:39:13.626Z,83.59
2022-12-06T08:44:17.849Z,83.52
2022-12-06T08:49:22.886Z,83.22
2022-12-06T08:54:26.998Z,83.29
2022-12-06T08:59:30.431Z,83.29
2022-12-06T09:04:33.969Z,83.04
2022-12-06T09:09:37.713Z,82.79
2022-12-06T09:14:41.200Z,83.04
2022-12-06T09:19:45.149Z,82.89
2022-12-06T09:24:48.358Z,82.87
2022-12-06T09:29:51.554Z,82.73
2022-12-06T09:34:54.783Z,82.64
2022-12-06T09:40:03.334Z,82.37
2022-12-06T09:45:33.109Z,82.22
2022-12-06T09:50:58.537Z,82.10
2022-12-06T09:56:10.990Z,80.90
2022-12-06T10:01:52.972Z,80.39
2022-12-06T10:07:19.895Z,80.46
2022-12-06T10:12:44.214Z,80.30
2022-12-06T10:18:08.895Z,80.30
2022-12-06T10:23:30.788Z,80.49
2022-12-06T10:28:53.061Z,81.02
2022-12-06T10:34:21.854Z,81.55
2022-12-06T10:40:04.510Z,82.04
2022-12-06T10:45:49.388Z,82.38
2022-12-06T10:51:02.866Z,82.55
2022-12-06T10:56:16.821Z,82.81
2022-12-06T11:01:28.758Z,83.00
2022-12-06T11:06:44.374Z,83.03
2022-12-06T11:11:50.695Z,82.92
2022-12-06T11:17:05.949Z,83.14
2022-12-06T11:22:25.075Z,83.14
2022-12-06T11:27:36.852Z,82.93
2022-12-06T11:32:41.350Z,82.94
2022-12-06T11:37:46.526Z,83.17
2022-12-06T11:42:50.320Z,83.55
2022-12-06T11:47:56.075Z,83.84
2022-12-06T11:53:18.042Z,83.96
2022-12-06T11:59:00.034Z,83.95
2022-12-06T12:04:24.723Z,83.88
2022-12-06T12:09:35.708Z,83.77
2022-12-06T12:14:44.088Z,83.88
2022-12-06T12:20:01.227Z,83.97
2022-12-06T12:25:29.694Z,84.09
2022-12-06T12:30:36.956Z,84.24
2022-12-06T12:35:44.161Z,84.31
2022-12-06T12:40:52.364Z,84.34
2022-12-06T12:46:18.021Z,84.49
2022-12-06T12:51:27.881Z,84.78
2022-12-06T12:56:38.565Z,84.86
2022-12-06T13:01:56.961Z,84.97
2022-12-06T13:07:12.908Z,85.05
2022-12-06T13:12:31.131Z,85.34
2022-12-06T13:17:38.163Z,85.49
2022-12-06T13:22:48.742Z,85.85
2022-12-06T13:28:00.829Z,85.86
2022-12-06T13:33:24.590Z,86.03
2022-12-06T13:38:37.381Z,86.24
2022-12-06T13:43:40.675Z,86.37
2022-12-06T13:48:58.947Z,86.39
2022-12-06T13:54:08.185Z,86.32
2022-12-06T13:59:11.390Z,86.43
2022-12-06T14:09:39.815Z,86.28
2022-12-06T14:14:43.304Z,86.15
2022-12-06T14:19:50.522Z,86.12
2022-12-06T14:25:04.985Z,86.08
2022-12-06T14:30:25.594Z,86.06
2022-12-06T14:35:36.452Z,86.04
2022-12-06T14:41:01.151Z,86.07
2022-12-06T14:46:12.143Z,86.15
2022-12-06T14:51:23.425Z,86.21
2022-12-06T14:56:34.313Z,86.20
2022-12-06T15:01:48.346Z,86.08
2022-12-06T15:06:55.643Z,86.02
2022-12-06T15:12:41.992Z,85.94
2022-12-06T15:17:45.402Z,85.76
2022-12-06T15:22:48.695Z,85.78
2022-12-06T15:27:51.853Z,85.63
2022-12-06T15:32:55.087Z,85.50
2022-12-06T15:37:58.301Z,85.50
2022-12-06T15:43:02.749Z,85.58
2022-12-06T15:48:06.835Z,85.78
2022-12-06T15:53:15.119Z,86.04
2022-12-06T15:58:18.660Z,86.32
2022-12-06T16:03:21.928Z,86.52
2022-12-06T16:08:25.290Z,86.60
2022-12-06T16:13:28.998Z,86.58
2022-12-06T16:18:32.874Z,86.57
2022-12-06T16:29:25.420Z,86.90
2022-12-06T16:34:30.146Z,86.78
2022-12-06T16:39:34.591Z,86.84
2022-12-06T16:44:51.548Z,86.77
2022-12-06T16:49:55.007Z,86.82
2022-12-06T16:54:58.529Z,86.90
2022-12-06T17:00:02.327Z,87.06
2022-12-06T17:05:07.296Z,87.25
2022-12-06T17:10:12.345Z,87.44
2022-12-06T17:15:21.895Z,87.51
2022-12-06T17:20:25.978Z,87.30
2022-12-06T17:25:29.231Z,87.01
2022-12-06T17:30:33.957Z,86.97
2022-12-06T17:35:37.493Z,86.82
2022-12-06T17:40:40.726Z,86.67
2022-12-06T17:45:45.055Z,86.65
2022-12-06T17:50:48.675Z,86.71
2022-12-06T17:55:52.023Z,86.80
2022-12-06T18:00:59.218Z,86.69
2022-12-06T18:06:07.454Z,86.53
2022-12-06T18:11:14.260Z,86.58
2022-12-06T18:16:21.121Z,86.67
2022-12-06T18:21:25.418Z,86.62
2022-12-06T18:26:28.801Z,86.55
2022-12-06T18:31:35.458Z,86.62
2022-12-06T18:36:38.887Z,86.56
2022-12-06T18:41:42.593Z,86.53
2022-12-06T18:46:45.812Z,86.44
2022-12-06T18:51:49.133Z,86.26
2022-12-06T18:56:52.487Z,86.12
2022-12-06T19:01:56.845Z,85.98
2022-12-06T19:07:00.284Z,85.85
2022-12-06T19:12:05.203Z,85.82
2022-12-06T19:17:11.551Z,85.73
2022-12-06T19:22:14.815Z,85.69
2022-12-06T19:27:20.601Z,85.61
2022-12-06T19:32:25.643Z,85.53
2022-12-06T19:37:31.302Z,85.48
2022-12-06T19:42:53.983Z,85.46
2022-12-06T19:47:57.156Z,85.40
2022-12-06T19:53:00.426Z,85.25
2022-12-06T19:58:03.896Z,85.36
2022-12-06T20:03:07.269Z,85.41
2022-12-06T20:08:10.599Z,85.49
2022-12-06T20:13:14.079Z,85.60
2022-12-06T20:18:19.001Z,85.60
2022-12-06T20:23:23.030Z,85.58
2022-12-06T20:28:26.284Z,85.54
2022-12-06T20:33:29.477Z,85.53
2022-12-06T20:38:32.746Z,85.54
2022-12-06T20:43:36.988Z,85.53
2022-12-06T20:48:41.252Z,85.50
2022-12-06T20:53:47.649Z,85.57
2022-12-06T20:58:55.202Z,85.52
2022-12-06T21:03:58.747Z,85.43
2022-12-06T21:09:02.074Z,85.12
2022-12-06T21:14:06.268Z,85.18
2022-12-06T21:19:13.619Z,85.35
2022-12-06T21:24:20.292Z,85.48
2022-12-06T21:29:30.407Z,85.46
2022-12-06T21:34:34.213Z,85.36
2022-12-06T21:39:37.513Z,85.33
2022-12-06T21:44:40.755Z,85.36
2022-12-06T21:49:44.086Z,85.29
2022-12-06T21:54:47.326Z,85.23
2022-12-06T21:59:50.520Z,85.18
2022-12-06T22:04:53.670Z,85.21
2022-12-06T22:09:58.289Z,85.26
2022-12-06T22:15:01.637Z,85.27
2022-12-06T22:20:06.785Z,85.25
2022-12-06T22:25:12.661Z,85.15
2022-12-06T22:30:21.791Z,85.25
2022-12-06T22:35:24.951Z,85.28
2022-12-06T22:40:28.581Z,85.40
2022-12-06T22:45:33.366Z,85.35
2022-12-06T22:50:36.896Z,85.09
2022-12-06T22:55:40.071Z,85.14
2022-12-06T23:00:43.231Z,85.32
2022-12-06T23:05:46.460Z,85.29
2022-12-06T23:11:00.359Z,85.14
2022-12-06T23:16:07.588Z,85.17
2022-12-06T23:21:14.069Z,85.02
2022-12-06T23:26:26.163Z,85.13
2022-12-06T23:31:32.098Z,85.15
2022-12-06T23:36:36.110Z,85.02
2022-12-06T23:41:39.796Z,85.07
2022-12-06T23:46:44.269Z,85.12
2022-12-06T23:51:48.863Z,85.40
2022-12-06T23:56:52.032Z,85.60
